sensor_id;sensor_type;location;lat;lon;timestamp;pressure;altitude;pressure_sealevel;temperature;humidity
49515;BME280;35415;47.870;16.058;2022-11-13T00:01:18;98753.31;;;3.27;92.93
49515;BME280;35415;47.870;16.058;2022-11-13T00:03:46;98729.94;;;3.08;93.23
49515;BME280;35415;47.870;16.058;2022-11-13T00:06:17;98666.44;;;2.69;92.75
49515;BME280;35415;47.870;16.058;2022-11-13T00:08:45;98747.25;;;3.19;93.11
49515;BME280;35415;47.870;16.058;2022-11-13T00:11:16;98691.44;;;2.75;92.76
49515;BME280;35415;47.870;16.058;2022-11-13T00:13:44;98676.41;;;2.67;92.77
49515;BME280;35415;47.870;16.058;2022-11-13T00:16:14;98682.47;;;2.76;92.80
49515;BME280;35415;47.870;16.058;2022-11-13T00:18:43;98756.16;;;3.11;92.89
49515;BME280;35415;47.870;16.058;2022-11-13T00:21:14;98756.91;;;3.05;93.31
49515;BME280;35415;47.870;16.058;2022-11-13T00:23:43;98748.75;;;3.07;92.97
49515;BME280;35415;47.870;16.058;2022-11-13T00:26:12;98741.59;;;3.07;92.72
49515;BME280;35415;47.870;16.058;2022-11-13T00:28:40;98678.72;;;2.70;93.17
49515;BME280;35415;47.870;16.058;2022-11-13T00:31:14;98709.94;;;2.83;92.78
49515;BME280;35415;47.870;16.058;2022-11-13T00:33:43;98658.25;;;2.41;92.91
49515;BME280;35415;47.870;16.058;2022-11-13T00:36:16;98736.81;;;3.03;93.02
49515;BME280;35415;47.870;16.058;2022-11-13T00:38:46;98730.75;;;2.94;93.42
49515;BME280;35415;47.870;16.058;2022-11-13T00:41:14;98724.53;;;2.87;93.36
49515;BME280;35415;47.870;16.058;2022-11-13T00:43:42;98711.50;;;2.62;93.54
49515;BME280;35415;47.870;16.058;2022-11-13T00:46:10;98755.06;;;2.91;93.23
49515;BME280;35415;47.870;16.058;2022-11-13T00:48:37;98664.28;;;2.35;93.21
49515;BME280;35415;47.870;16.058;2022-11-13T00:51:09;98694.72;;;2.62;93.33
49515;BME280;35415;47.870;16.058;2022-11-13T00:53:37;98726.34;;;2.71;93.30
49515;BME280;35415;47.870;16.058;2022-11-13T00:56:04;98663.13;;;2.37;93.36
49515;BME280;35415;47.870;16.058;2022-11-13T00:58:32;98734.03;;;2.81;93.92
49515;BME280;35415;47.870;16.058;2022-11-13T01:01:04;98736.25;;;2.78;93.85
49515;BME280;35415;47.870;16.058;2022-11-13T01:03:32;98733.78;;;2.76;93.37
49515;BME280;35415;47.870;16.058;2022-11-13T01:05:59;98666.66;;;2.30;93.50
49515;BME280;35415;47.870;16.058;2022-11-13T01:08:28;98667.66;;;2.29;93.76
49515;BME280;35415;47.870;16.058;2022-11-13T01:10:56;98729.19;;;2.70;93.63
49515;BME280;35415;47.870;16.058;2022-11-13T01:13:23;98671.59;;;2.33;93.82
49515;BME280;35415;47.870;16.058;2022-11-13T01:15:51;98685.25;;;2.30;93.77
49515;BME280;35415;47.870;16.058;2022-11-13T01:18:21;98702.56;;;2.40;94.17
49515;BME280;35415;47.870;16.058;2022-11-13T01:20:50;98682.34;;;2.39;94.12
49515;BME280;35415;47.870;16.058;2022-11-13T01:23:18;98667.13;;;2.33;93.88
49515;BME280;35415;47.870;16.058;2022-11-13T01:25:49;98697.91;;;2.42;93.76
49515;BME280;35415;47.870;16.058;2022-11-13T01:28:16;98693.47;;;2.35;93.98
49515;BME280;35415;47.870;16.058;2022-11-13T01:30:43;98658.84;;;2.14;93.96
49515;BME280;35415;47.870;16.058;2022-11-13T01:33:11;98654.94;;;2.01;93.60
49515;BME280;35415;47.870;16.058;2022-11-13T01:35:40;98641.94;;;1.92;94.13
49515;BME280;35415;47.870;16.058;2022-11-13T01:38:10;98685.16;;;2.23;94.07
49515;BME280;35415;47.870;16.058;2022-11-13T01:40:44;98665.50;;;2.09;94.25
49515;BME280;35415;47.870;16.058;2022-11-13T01:43:27;98654.75;;;1.88;94.05
49515;BME280;35415;47.870;16.058;2022-11-13T01:46:10;98687.38;;;2.11;94.08
49515;BME280;35415;47.870;16.058;2022-11-13T01:48:43;98686.22;;;2.14;94.03
49515;BME280;35415;47.870;16.058;2022-11-13T01:51:21;98636.59;;;1.77;93.87
49515;BME280;35415;47.870;16.058;2022-11-13T01:53:51;98702.31;;;2.13;93.77
49515;BME280;35415;47.870;16.058;2022-11-13T01:56:19;98630.47;;;1.76;94.18
49515;BME280;35415;47.870;16.058;2022-11-13T01:58:56;98614.09;;;1.73;94.29
49515;BME280;35415;47.870;16.058;2022-11-13T02:01:27;98649.81;;;1.85;93.93
49515;BME280;35415;47.870;16.058;2022-11-13T02:03:54;98630.66;;;1.75;94.20
49515;BME280;35415;47.870;16.058;2022-11-13T02:06:22;98691.22;;;2.09;94.07
49515;BME280;35415;47.870;16.058;2022-11-13T02:08:51;98699.84;;;2.11;94.20
49515;BME280;35415;47.870;16.058;2022-11-13T02:11:19;98642.53;;;1.79;93.94
49515;BME280;35415;47.870;16.058;2022-11-13T02:13:49;98655.44;;;1.82;94.07
49515;BME280;35415;47.870;16.058;2022-11-13T02:16:17;98665.19;;;1.90;94.28
49515;BME280;35415;47.870;16.058;2022-11-13T02:18:45;98664.22;;;1.83;94.72
49515;BME280;35415;47.870;16.058;2022-11-13T02:21:24;98660.56;;;1.84;94.51
49515;BME280;35415;47.870;16.058;2022-11-13T02:24:10;98631.59;;;1.59;93.90
49515;BME280;35415;47.870;16.058;2022-11-13T02:26:44;98640.91;;;1.78;94.26
49515;BME280;35415;47.870;16.058;2022-11-13T02:29:20;98662.19;;;1.93;94.56
49515;BME280;35415;47.870;16.058;2022-11-13T02:31:48;98596.00;;;1.54;94.50
49515;BME280;35415;47.870;16.058;2022-11-13T02:34:15;98584.69;;;1.37;94.36
49515;BME280;35415;47.870;16.058;2022-11-13T02:36:44;98640.44;;;1.74;94.72
49515;BME280;35415;47.870;16.058;2022-11-13T02:39:14;98585.69;;;1.36;94.69
49515;BME280;35415;47.870;16.058;2022-11-13T02:41:41;98627.53;;;1.71;94.91
49515;BME280;35415;47.870;16.058;2022-11-13T02:44:08;98653.44;;;1.84;94.90
49515;BME280;35415;47.870;16.058;2022-11-13T02:46:38;98582.16;;;1.43;94.76
49515;BME280;35415;47.870;16.058;2022-11-13T02:49:06;98638.50;;;1.68;94.40
49515;BME280;35415;47.870;16.058;2022-11-13T02:51:33;98617.78;;;1.64;94.57
49515;BME280;35415;47.870;16.058;2022-11-13T02:54:01;98562.88;;;1.27;94.24
49515;BME280;35415;47.870;16.058;2022-11-13T02:56:30;98570.66;;;1.28;94.43
49515;BME280;35415;47.870;16.058;2022-11-13T02:58:57;98549.53;;;1.20;94.36
49515;BME280;35415;47.870;16.058;2022-11-13T03:01:26;98585.03;;;1.34;94.60
49515;BME280;35415;47.870;16.058;2022-11-13T03:03:53;98611.75;;;1.55;94.69
49515;BME280;35415;47.870;16.058;2022-11-13T03:06:21;98554.19;;;1.18;94.76
49515;BME280;35415;47.870;16.058;2022-11-13T03:08:51;98576.91;;;1.35;95.13
49515;BME280;35415;47.870;16.058;2022-11-13T03:11:18;98550.09;;;1.07;95.15
49515;BME280;35415;47.870;16.058;2022-11-13T03:13:47;98607.66;;;1.44;95.20
49515;BME280;35415;47.870;16.058;2022-11-13T03:16:15;98610.03;;;1.39;95.36
49515;BME280;35415;47.870;16.058;2022-11-13T03:18:43;98556.59;;;1.05;95.61
49515;BME280;35415;47.870;16.058;2022-11-13T03:21:15;98555.41;;;1.07;95.19
49515;BME280;35415;47.870;16.058;2022-11-13T03:23:42;98616.16;;;1.40;95.28
49515;BME280;35415;47.870;16.058;2022-11-13T03:26:15;98601.59;;;1.36;95.40
49515;BME280;35415;47.870;16.058;2022-11-13T03:28:44;98570.28;;;1.08;95.11
49515;BME280;35415;47.870;16.058;2022-11-13T03:31:14;98561.41;;;1.01;95.00
49515;BME280;35415;47.870;16.058;2022-11-13T03:33:41;98543.38;;;0.97;95.23
49515;BME280;35415;47.870;16.058;2022-11-13T03:36:09;98603.09;;;1.30;95.26
49515;BME280;35415;47.870;16.058;2022-11-13T03:38:36;98535.78;;;0.94;95.16
49515;BME280;35415;47.870;16.058;2022-11-13T03:41:04;98628.69;;;1.46;95.23
49515;BME280;35415;47.870;16.058;2022-11-13T03:43:32;98553.59;;;1.00;95.04
49515;BME280;35415;47.870;16.058;2022-11-13T03:45:59;98587.13;;;1.15;94.49
49515;BME280;35415;47.870;16.058;2022-11-13T03:48:28;98538.97;;;0.89;95.07
49515;BME280;35415;47.870;16.058;2022-11-13T03:50:57;98535.47;;;0.88;94.43
49515;BME280;35415;47.870;16.058;2022-11-13T03:53:25;98547.19;;;0.94;94.70
49515;BME280;35415;47.870;16.058;2022-11-13T03:55:52;98602.59;;;1.35;94.65
49515;BME280;35415;47.870;16.058;2022-11-13T03:58:21;98551.38;;;0.88;94.81
49515;BME280;35415;47.870;16.058;2022-11-13T04:00:49;98583.19;;;1.11;94.59
49515;BME280;35415;47.870;16.058;2022-11-13T04:03:16;98588.84;;;1.08;94.77
49515;BME280;35415;47.870;16.058;2022-11-13T04:05:46;98605.13;;;1.28;94.56
49515;BME280;35415;47.870;16.058;2022-11-13T04:08:15;98513.91;;;0.69;94.43
49515;BME280;35415;47.870;16.058;2022-11-13T04:10:42;98566.03;;;0.99;94.63
49515;BME280;35415;47.870;16.058;2022-11-13T04:13:10;98577.16;;;0.95;94.89
49515;BME280;35415;47.870;16.058;2022-11-13T04:15:38;98613.81;;;1.14;95.17
49515;BME280;35415;47.870;16.058;2022-11-13T04:18:08;98542.16;;;0.76;94.91
49515;BME280;35415;47.870;16.058;2022-11-13T04:20:35;98530.66;;;0.61;94.95
49515;BME280;35415;47.870;16.058;2022-11-13T04:23:06;98497.31;;;0.44;95.25
49515;BME280;35415;47.870;16.058;2022-11-13T04:25:37;98565.13;;;0.84;95.17
49515;BME280;35415;47.870;16.058;2022-11-13T04:28:05;98503.09;;;0.47;95.05
49515;BME280;35415;47.870;16.058;2022-11-13T04:30:32;98506.72;;;0.46;95.29
49515;BME280;35415;47.870;16.058;2022-11-13T04:33:02;98548.75;;;0.80;95.25
49515;BME280;35415;47.870;16.058;2022-11-13T04:35:30;98569.78;;;0.82;95.28
49515;BME280;35415;47.870;16.058;2022-11-13T04:37:59;98527.47;;;0.66;95.11
49515;BME280;35415;47.870;16.058;2022-11-13T04:40:30;98583.75;;;0.99;95.32
49515;BME280;35415;47.870;16.058;2022-11-13T04:42:57;98491.41;;;0.34;95.08
49515;BME280;35415;47.870;16.058;2022-11-13T04:45:24;98526.06;;;0.55;95.25
49515;BME280;35415;47.870;16.058;2022-11-13T04:47:52;98553.75;;;0.75;94.96
49515;BME280;35415;47.870;16.058;2022-11-13T04:50:20;98529.19;;;0.58;95.21
49515;BME280;35415;47.870;16.058;2022-11-13T04:52:51;98559.25;;;0.66;94.81
49515;BME280;35415;47.870;16.058;2022-11-13T04:55:18;98592.78;;;0.81;95.15
49515;BME280;35415;47.870;16.058;2022-11-13T04:57:47;98582.09;;;0.67;95.20
49515;BME280;35415;47.870;16.058;2022-11-13T05:00:16;98579.84;;;0.55;95.13
49515;BME280;35415;47.870;16.058;2022-11-13T05:02:44;98556.06;;;0.39;94.88
49515;BME280;35415;47.870;16.058;2022-11-13T05:05:12;98575.53;;;0.54;94.99
49515;BME280;35415;47.870;16.058;2022-11-13T05:07:39;98598.31;;;0.64;95.04
49515;BME280;35415;47.870;16.058;2022-11-13T05:10:07;98602.31;;;0.68;94.99
49515;BME280;35415;47.870;16.058;2022-11-13T05:12:36;98537.13;;;0.19;95.01
49515;BME280;35415;47.870;16.058;2022-11-13T05:15:07;98528.25;;;0.04;94.95
49515;BME280;35415;47.870;16.058;2022-11-13T05:17:37;98541.78;;;0.17;95.15
49515;BME280;35415;47.870;16.058;2022-11-13T05:20:05;98549.69;;;0.17;95.43
49515;BME280;35415;47.870;16.058;2022-11-13T05:22:33;98531.06;;;0.03;94.93
49515;BME280;35415;47.870;16.058;2022-11-13T05:25:02;98528.91;;;-0.02;95.39
49515;BME280;35415;47.870;16.058;2022-11-13T05:27:32;98629.44;;;0.62;95.53
49515;BME280;35415;47.870;16.058;2022-11-13T05:30:02;98548.25;;;-0.02;95.49
49515;BME280;35415;47.870;16.058;2022-11-13T05:32:32;98619.09;;;0.44;95.41
49515;BME280;35415;47.870;16.058;2022-11-13T05:35:02;98585.88;;;0.25;95.17
49515;BME280;35415;47.870;16.058;2022-11-13T05:37:30;98541.00;;;0.01;95.40
49515;BME280;35415;47.870;16.058;2022-11-13T05:40:00;98596.44;;;0.33;94.91
49515;BME280;35415;47.870;16.058;2022-11-13T05:42:29;98607.38;;;0.30;95.13
49515;BME280;35415;47.870;16.058;2022-11-13T05:44:56;98568.53;;;0.14;95.13
49515;BME280;35415;47.870;16.058;2022-11-13T05:47:23;98544.94;;;-0.04;95.22
49515;BME280;35415;47.870;16.058;2022-11-13T05:49:53;98562.94;;;0.09;95.03
49515;BME280;35415;47.870;16.058;2022-11-13T05:52:20;98599.91;;;0.34;94.56
49515;BME280;35415;47.870;16.058;2022-11-13T05:54:48;98624.50;;;0.50;94.89
49515;BME280;35415;47.870;16.058;2022-11-13T05:57:15;98542.47;;;-0.05;94.34
49515;BME280;35415;47.870;16.058;2022-11-13T05:59:43;98610.84;;;0.30;94.72
49515;BME280;35415;47.870;16.058;2022-11-13T06:02:10;98548.28;;;-0.10;94.83
49515;BME280;35415;47.870;16.058;2022-11-13T06:04:39;98640.44;;;0.42;94.73
49515;BME280;35415;47.870;16.058;2022-11-13T06:07:09;98593.81;;;0.25;95.15
49515;BME280;35415;47.870;16.058;2022-11-13T06:09:41;98642.13;;;0.35;94.94
49515;BME280;35415;47.870;16.058;2022-11-13T06:12:09;98557.19;;;-0.19;95.01
49515;BME280;35415;47.870;16.058;2022-11-13T06:14:37;98583.31;;;-0.08;94.52
49515;BME280;35415;47.870;16.058;2022-11-13T06:17:04;98647.53;;;0.42;95.06
49515;BME280;35415;47.870;16.058;2022-11-13T06:19:32;98648.53;;;0.41;95.18
49515;BME280;35415;47.870;16.058;2022-11-13T06:21:59;98612.69;;;0.14;95.20
49515;BME280;35415;47.870;16.058;2022-11-13T06:24:28;98661.94;;;0.39;95.26
49515;BME280;35415;47.870;16.058;2022-11-13T06:26:56;98616.19;;;0.06;95.85
49515;BME280;35415;47.870;16.058;2022-11-13T06:29:23;98618.19;;;0.04;95.50
49515;BME280;35415;47.870;16.058;2022-11-13T06:31:56;98640.28;;;0.27;95.95
49515;BME280;35415;47.870;16.058;2022-11-13T06:34:41;98542.34;;;-0.36;95.81
49515;BME280;35415;47.870;16.058;2022-11-13T06:37:45;98654.19;;;0.38;96.50
49515;BME280;35415;47.870;16.058;2022-11-13T06:40:31;98545.34;;;-0.31;96.28
49515;BME280;35415;47.870;16.058;2022-11-13T06:42:58;98574.19;;;-0.05;97.17
49515;BME280;35415;47.870;16.058;2022-11-13T06:45:25;98644.72;;;0.43;97.48
49515;BME280;35415;47.870;16.058;2022-11-13T06:47:53;98602.09;;;0.22;97.74
49515;BME280;35415;47.870;16.058;2022-11-13T06:50:21;98548.63;;;-0.13;97.68
49515;BME280;35415;47.870;16.058;2022-11-13T06:52:50;98627.31;;;0.49;98.23
49515;BME280;35415;47.870;16.058;2022-11-13T06:55:19;98617.56;;;0.49;98.42
49515;BME280;35415;47.870;16.058;2022-11-13T06:57:47;98527.59;;;-0.06;99.05
49515;BME280;35415;47.870;16.058;2022-11-13T07:00:17;98610.59;;;0.56;99.20
49515;BME280;35415;47.870;16.058;2022-11-13T07:02:44;98602.84;;;0.55;99.12
49515;BME280;35415;47.870;16.058;2022-11-13T07:05:14;98564.69;;;0.33;99.38
49515;BME280;35415;47.870;16.058;2022-11-13T07:07:42;98551.84;;;0.14;99.69
49515;BME280;35415;47.870;16.058;2022-11-13T07:10:12;98601.38;;;0.44;100.00
49515;BME280;35415;47.870;16.058;2022-11-13T07:12:42;98615.38;;;0.61;99.94
49515;BME280;35415;47.870;16.058;2022-11-13T07:15:12;98574.72;;;0.46;100.00
49515;BME280;35415;47.870;16.058;2022-11-13T07:17:41;98612.03;;;0.67;100.00
49515;BME280;35415;47.870;16.058;2022-11-13T07:20:09;98538.84;;;0.43;100.00
49515;BME280;35415;47.870;16.058;2022-11-13T07:22:38;98561.16;;;0.49;100.00
49515;BME280;35415;47.870;16.058;2022-11-13T07:25:06;98533.91;;;0.32;100.00
49515;BME280;35415;47.870;16.058;2022-11-13T07:27:37;98560.00;;;0.51;100.00
49515;BME280;35415;47.870;16.058;2022-11-13T07:30:12;98532.25;;;0.39;100.00
49515;BME280;35415;47.870;16.058;2022-11-13T07:33:20;98593.59;;;0.90;100.00
49515;BME280;35415;47.870;16.058;2022-11-13T07:36:01;98514.72;;;0.38;100.00
49515;BME280;35415;47.870;16.058;2022-11-13T07:38:30;98592.75;;;0.89;100.00
49515;BME280;35415;47.870;16.058;2022-11-13T07:41:00;98563.06;;;0.71;100.00
49515;BME280;35415;47.870;16.058;2022-11-13T07:43:27;98523.41;;;0.55;100.00
49515;BME280;35415;47.870;16.058;2022-11-13T07:45:58;98583.75;;;0.99;100.00
49515;BME280;35415;47.870;16.058;2022-11-13T07:48:28;98560.50;;;0.86;100.00
49515;BME280;35415;47.870;16.058;2022-11-13T07:50:59;98570.88;;;0.96;100.00
49515;BME280;35415;47.870;16.058;2022-11-13T07:53:27;98590.78;;;1.14;100.00
49515;BME280;35415;47.870;16.058;2022-11-13T07:55:59;98595.34;;;1.29;100.00
49515;BME280;35415;47.870;16.058;2022-11-13T07:58:26;98585.38;;;1.31;100.00
49515;BME280;35415;47.870;16.058;2022-11-13T08:00:54;98585.19;;;1.32;100.00
49515;BME280;35415;47.870;16.058;2022-11-13T08:03:34;98563.09;;;1.17;100.00
49515;BME280;35415;47.870;16.058;2022-11-13T08:06:07;98502.22;;;0.86;100.00
49515;BME280;35415;47.870;16.058;2022-11-13T08:08:36;98554.03;;;1.34;100.00
49515;BME280;35415;47.870;16.058;2022-11-13T08:11:07;98579.56;;;1.58;100.00
49515;BME280;35415;47.870;16.058;2022-11-13T08:13:36;98577.53;;;1.60;100.00
49515;BME280;35415;47.870;16.058;2022-11-13T08:16:07;98585.09;;;1.71;100.00
49515;BME280;35415;47.870;16.058;2022-11-13T08:18:37;98546.00;;;1.65;100.00
49515;BME280;35415;47.870;16.058;2022-11-13T08:21:05;98483.13;;;1.36;100.00
49515;BME280;35415;47.870;16.058;2022-11-13T08:23:33;98531.03;;;1.72;100.00
49515;BME280;35415;47.870;16.058;2022-11-13T08:26:03;98564.03;;;2.22;100.00
49515;BME280;35415;47.870;16.058;2022-11-13T08:28:32;98554.88;;;2.25;100.00
49515;BME280;35415;47.870;16.058;2022-11-13T08:31:00;98563.94;;;2.45;100.00
49515;BME280;35415;47.870;16.058;2022-11-13T08:33:29;98489.78;;;2.14;100.00
49515;BME280;35415;47.870;16.058;2022-11-13T08:35:59;98575.06;;;2.85;100.00
49515;BME280;35415;47.870;16.058;2022-11-13T08:38:28;98563.94;;;3.11;100.00
49515;BME280;35415;47.870;16.058;2022-11-13T08:40:56;98579.16;;;3.38;100.00
49515;BME280;35415;47.870;16.058;2022-11-13T08:43:24;98582.06;;;3.65;100.00
49515;BME280;35415;47.870;16.058;2022-11-13T08:45:52;98570.47;;;4.00;100.00
49515;BME280;35415;47.870;16.058;2022-11-13T08:48:20;98570.28;;;4.36;100.00
49515;BME280;35415;47.870;16.058;2022-11-13T08:50:50;98577.91;;;4.74;100.00
49515;BME280;35415;47.870;16.058;2022-11-13T08:53:20;98583.16;;;5.08;100.00
49515;BME280;35415;47.870;16.058;2022-11-13T08:55:49;98567.84;;;5.37;100.00
49515;BME280;35415;47.870;16.058;2022-11-13T08:58:27;98567.91;;;5.77;100.00
49515;BME280;35415;47.870;16.058;2022-11-13T09:01:01;98550.09;;;5.90;100.00
49515;BME280;35415;47.870;16.058;2022-11-13T09:03:29;98521.31;;;5.99;100.00
49515;BME280;35415;47.870;16.058;2022-11-13T09:05:56;98506.06;;;6.26;100.00
49515;BME280;35415;47.870;16.058;2022-11-13T09:08:25;98504.19;;;6.40;100.00
49515;BME280;35415;47.870;16.058;2022-11-13T09:10:53;98520.25;;;6.84;100.00
49515;BME280;35415;47.870;16.058;2022-11-13T09:13:20;98506.84;;;6.91;100.00
49515;BME280;35415;47.870;16.058;2022-11-13T09:15:48;98558.75;;;7.53;100.00
49515;BME280;35415;47.870;16.058;2022-11-13T09:18:15;98487.06;;;7.30;100.00
49515;BME280;35415;47.870;16.058;2022-11-13T09:20:42;98498.00;;;7.53;99.78
49515;BME280;35415;47.870;16.058;2022-11-13T09:23:09;98571.19;;;8.22;98.40
49515;BME280;35415;47.870;16.058;2022-11-13T09:25:38;98539.03;;;8.22;96.73
49515;BME280;35415;47.870;16.058;2022-11-13T09:28:08;98569.84;;;8.56;95.74
49515;BME280;35415;47.870;16.058;2022-11-13T09:30:37;98562.50;;;8.70;94.52
49515;BME280;35415;47.870;16.058;2022-11-13T09:33:05;98569.66;;;8.94;93.83
49515;BME280;35415;47.870;16.058;2022-11-13T09:35:32;98572.31;;;9.13;93.04
49515;BME280;35415;47.870;16.058;2022-11-13T09:38:00;98567.38;;;9.28;91.68
49515;BME280;35415;47.870;16.058;2022-11-13T09:40:30;98563.31;;;9.37;91.49
49515;BME280;35415;47.870;16.058;2022-11-13T09:43:01;98528.63;;;9.35;90.08
49515;BME280;35415;47.870;16.058;2022-11-13T09:45:30;98533.34;;;9.52;88.83
49515;BME280;35415;47.870;16.058;2022-11-13T09:48:09;98516.09;;;9.59;89.27
49515;BME280;35415;47.870;16.058;2022-11-13T09:50:38;98532.84;;;9.85;88.10
49515;BME280;35415;47.870;16.058;2022-11-13T09:53:05;98469.50;;;9.65;86.61
49515;BME280;35415;47.870;16.058;2022-11-13T09:55:52;98517.75;;;10.07;86.67
49515;BME280;35415;47.870;16.058;2022-11-13T09:58:29;98547.03;;;10.39;85.71
49515;BME280;35415;47.870;16.058;2022-11-13T10:00:59;98448.25;;;9.99;84.61
49515;BME280;35415;47.870;16.058;2022-11-13T10:03:33;98541.97;;;10.66;83.75
49515;BME280;35415;47.870;16.058;2022-11-13T10:06:11;98477.56;;;10.36;83.29
49515;BME280;35415;47.870;16.058;2022-11-13T10:08:48;98508.72;;;10.72;83.42
49515;BME280;35415;47.870;16.058;2022-11-13T10:11:25;98505.44;;;10.81;82.92
49515;BME280;35415;47.870;16.058;2022-11-13T10:14:02;98466.63;;;10.77;81.14
49515;BME280;35415;47.870;16.058;2022-11-13T10:16:36;98478.59;;;10.98;80.31
49515;BME280;35415;47.870;16.058;2022-11-13T10:19:20;98472.22;;;11.04;80.69
49515;BME280;35415;47.870;16.058;2022-11-13T10:21:52;98473.16;;;11.10;80.41
49515;BME280;35415;47.870;16.058;2022-11-13T10:24:26;98466.25;;;11.31;79.95
49515;BME280;35415;47.870;16.058;2022-11-13T10:26:55;98497.94;;;11.57;79.75
49515;BME280;35415;47.870;16.058;2022-11-13T10:29:27;98507.22;;;11.78;79.08
49515;BME280;35415;47.870;16.058;2022-11-13T10:31:56;98442.41;;;11.39;78.53
49515;BME280;35415;47.870;16.058;2022-11-13T10:34:23;98491.41;;;11.82;77.38
49515;BME280;35415;47.870;16.058;2022-11-13T10:37:16;98488.81;;;12.09;78.32
49515;BME280;35415;47.870;16.058;2022-11-13T10:39:48;98451.34;;;11.90;77.68
49515;BME280;35415;47.870;16.058;2022-11-13T10:42:21;98450.91;;;12.15;77.33
49515;BME280;35415;47.870;16.058;2022-11-13T10:44:55;98473.63;;;12.41;77.29
49515;BME280;35415;47.870;16.058;2022-11-13T10:47:24;98475.97;;;12.54;76.44
49515;BME280;35415;47.870;16.058;2022-11-13T10:49:51;98417.03;;;12.24;75.07
49515;BME280;35415;47.870;16.058;2022-11-13T10:52:20;98432.69;;;12.44;74.08
49515;BME280;35415;47.870;16.058;2022-11-13T10:54:50;98464.44;;;12.81;73.39
49515;BME280;35415;47.870;16.058;2022-11-13T10:57:33;98435.72;;;12.75;72.18
49515;BME280;35415;47.870;16.058;2022-11-13T11:00:22;98427.72;;;12.80;73.77
49515;BME280;35415;47.870;16.058;2022-11-13T11:02:49;98386.47;;;12.62;72.81
49515;BME280;35415;47.870;16.058;2022-11-13T11:05:18;98382.56;;;12.75;72.64
49515;BME280;35415;47.870;16.058;2022-11-13T11:07:46;98422.38;;;13.12;72.36
49515;BME280;35415;47.870;16.058;2022-11-13T11:10:29;98411.94;;;13.20;72.33
49515;BME280;35415;47.870;16.058;2022-11-13T11:12:58;98435.44;;;13.47;75.28
49515;BME280;35415;47.870;16.058;2022-11-13T11:15:38;98391.16;;;13.26;71.57
49515;BME280;35415;47.870;16.058;2022-11-13T11:18:21;98433.69;;;13.68;71.68
49515;BME280;35415;47.870;16.058;2022-11-13T11:20:53;98429.41;;;13.77;69.71
49515;BME280;35415;47.870;16.058;2022-11-13T11:23:26;98362.13;;;13.43;68.14
49515;BME280;35415;47.870;16.058;2022-11-13T11:26:00;98410.50;;;13.77;67.89
49515;BME280;35415;47.870;16.058;2022-11-13T11:28:32;98417.13;;;13.96;67.53
49515;BME280;35415;47.870;16.058;2022-11-13T11:31:11;98411.84;;;14.17;68.85
49515;BME280;35415;47.870;16.058;2022-11-13T11:33:49;98398.31;;;14.17;67.79
49515;BME280;35415;47.870;16.058;2022-11-13T11:36:24;98388.81;;;14.14;67.76
49515;BME280;35415;47.870;16.058;2022-11-13T11:38:59;98403.25;;;14.30;65.84
49515;BME280;35415;47.870;16.058;2022-11-13T11:41:33;98364.16;;;14.10;63.83
49515;BME280;35415;47.870;16.058;2022-11-13T11:44:12;98406.88;;;14.51;63.89
49515;BME280;35415;47.870;16.058;2022-11-13T11:46:43;98391.19;;;14.58;64.68
49515;BME280;35415;47.870;16.058;2022-11-13T11:49:10;98335.53;;;14.14;63.43
49515;BME280;35415;47.870;16.058;2022-11-13T11:51:43;98330.13;;;14.20;64.70
49515;BME280;35415;47.870;16.058;2022-11-13T11:54:27;98357.25;;;14.40;64.25
49515;BME280;35415;47.870;16.058;2022-11-13T11:57:09;98390.97;;;14.74;63.38
49515;BME280;35415;47.870;16.058;2022-11-13T11:59:56;98362.75;;;14.60;60.81
49515;BME280;35415;47.870;16.058;2022-11-13T12:06:06;98356.84;;;14.63;62.05
49515;BME280;35415;47.870;16.058;2022-11-13T12:08:42;98343.84;;;14.65;63.67
49515;BME280;35415;47.870;16.058;2022-11-13T12:11:20;98358.22;;;14.81;62.57
49515;BME280;35415;47.870;16.058;2022-11-13T12:13:57;98377.50;;;15.05;62.77
49515;BME280;35415;47.870;16.058;2022-11-13T12:16:37;98326.78;;;14.75;63.83
49515;BME280;35415;47.870;16.058;2022-11-13T12:19:15;98315.44;;;14.88;62.78
49515;BME280;35415;47.870;16.058;2022-11-13T12:21:56;98314.34;;;14.84;62.21
49515;BME280;35415;47.870;16.058;2022-11-13T12:24:42;98365.88;;;15.35;62.28
49515;BME280;35415;47.870;16.058;2022-11-13T12:27:20;98359.38;;;15.46;62.25
49515;BME280;35415;47.870;16.058;2022-11-13T12:30:00;98301.91;;;15.24;61.77
49515;BME280;35415;47.870;16.058;2022-11-13T12:32:38;98358.00;;;15.69;60.81
49515;BME280;35415;47.870;16.058;2022-11-13T12:35:13;98309.47;;;15.37;60.20
49515;BME280;35415;47.870;16.058;2022-11-13T12:37:48;98349.31;;;15.72;58.12
49515;BME280;35415;47.870;16.058;2022-11-13T12:40:26;98317.06;;;15.50;56.97
49515;BME280;35415;47.870;16.058;2022-11-13T12:43:02;98340.38;;;15.61;58.05
49515;BME280;35415;47.870;16.058;2022-11-13T12:45:48;98339.53;;;15.81;59.71
49515;BME280;35415;47.870;16.058;2022-11-13T12:48:25;98319.47;;;15.57;56.98
49515;BME280;35415;47.870;16.058;2022-11-13T12:51:00;98322.50;;;15.66;58.54
49515;BME280;35415;47.870;16.058;2022-11-13T12:53:30;98273.97;;;15.39;57.38
49515;BME280;35415;47.870;16.058;2022-11-13T12:56:14;98346.88;;;15.81;55.36
49515;BME280;35415;47.870;16.058;2022-11-13T12:58:50;98336.50;;;15.93;58.63
49515;BME280;35415;47.870;16.058;2022-11-13T13:01:19;98296.44;;;15.70;56.75
49515;BME280;35415;47.870;16.058;2022-11-13T13:04:05;98304.00;;;15.78;56.88
49515;BME280;35415;47.870;16.058;2022-11-13T13:06:50;98339.47;;;16.02;57.05
49515;BME280;35415;47.870;16.058;2022-11-13T13:09:31;98302.63;;;15.85;57.15
49515;BME280;35415;47.870;16.058;2022-11-13T13:12:09;98268.22;;;15.71;56.75
49515;BME280;35415;47.870;16.058;2022-11-13T13:15:00;98323.97;;;16.17;56.41
49515;BME280;35415;47.870;16.058;2022-11-13T13:17:30;98315.25;;;16.20;54.95
49515;BME280;35415;47.870;16.058;2022-11-13T13:19:59;98295.75;;;16.08;53.94